createdAt,value
2022-10-20T00:31:07.404Z,1007.95
2022-10-20T00:31:47.802Z,1007.92
2022-10-20T00:32:28.321Z,1008
2022-10-20T00:33:08.736Z,1007.91
2022-10-20T00:33:49.191Z,1007.93
2022-10-20T00:34:29.668Z,1007.97
2022-10-20T00:35:10.175Z,1008
2022-10-20T00:35:50.615Z,1007.95
2022-10-20T00:36:31.140Z,1007.97
2022-10-20T00:37:11.544Z,1007.98
2022-10-20T00:37:52.074Z,1007.97
2022-10-20T00:38:32.559Z,1007.96
2022-10-20T00:39:13.027Z,1007.84
2022-10-20T00:39:54.192Z,1007.84
2022-10-20T00:40:34.647Z,1007.86
2022-10-20T00:41:15.127Z,1007.85
2022-10-20T00:41:55.584Z,1007.76
2022-10-20T00:42:36.316Z,1007.79
2022-10-20T00:43:16.582Z,1007.98
2022-10-20T00:43:57.128Z,1007.86
2022-10-20T00:44:37.584Z,1007.81
2022-10-20T00:45:18.085Z,1007.85
2022-10-20T00:45:58.555Z,1007.91
2022-10-20T00:46:39.076Z,1008
2022-10-20T00:47:19.498Z,1007.97
2022-10-20T00:48:00.014Z,1007.92
2022-10-20T00:48:40.579Z,1007.9
2022-10-20T00:49:21.019Z,1007.93
2022-10-20T00:50:01.455Z,1007.98
2022-10-20T00:50:41.953Z,1007.99
2022-10-20T00:51:22.451Z,1008.01
2022-10-20T00:52:02.939Z,1007.98
2022-10-20T00:52:43.373Z,1007.96
2022-10-20T00:53:23.838Z,1008
2022-10-20T00:54:04.345Z,1007.97
2022-10-20T00:54:44.812Z,1007.95
2022-10-20T00:55:25.339Z,1007.94
2022-10-20T00:56:05.802Z,1007.92
2022-10-20T00:56:46.260Z,1007.86
2022-10-20T00:57:26.716Z,1007.88
2022-10-20T00:58:07.214Z,1007.81
2022-10-20T00:58:47.700Z,1007.8
2022-10-20T00:59:28.165Z,1007.77
2022-10-20T01:00:08.607Z,1007.81
2022-10-20T01:00:49.132Z,1007.77
2022-10-20T01:01:29.661Z,1007.78
2022-10-20T01:02:10.138Z,1007.77
2022-10-20T01:02:50.584Z,1007.8
2022-10-20T01:03:31.069Z,1007.83
2022-10-20T01:04:11.613Z,1007.77
2022-10-20T01:04:52.074Z,1007.67
2022-10-20T01:05:32.520Z,1007.68
2022-10-20T01:06:13.047Z,1007.62
2022-10-20T01:06:53.526Z,1007.64
2022-10-20T01:07:34.425Z,1007.8
2022-10-20T01:08:14.637Z,1007.67
2022-10-20T01:08:55.105Z,1007.65
2022-10-20T01:09:35.546Z,1007.6
2022-10-20T01:10:16.058Z,1007.53
2022-10-20T01:10:56.493Z,1007.58
2022-10-20T01:11:36.944Z,1007.58
2022-10-20T01:12:17.480Z,1007.52
2022-10-20T01:12:57.952Z,1007.54
2022-10-20T01:13:38.499Z,1007.53
2022-10-20T01:14:18.920Z,1007.52
2022-10-20T01:14:59.435Z,1007.6
2022-10-20T01:16:20.414Z,1007.67
2022-10-20T01:17:00.837Z,1007.5
2022-10-20T01:17:41.344Z,1007.45
2022-10-20T01:19:02.315Z,1007.47
2022-10-20T01:19:43.628Z,1007.51
2022-10-20T01:20:24.125Z,1007.44
2022-10-20T01:21:04.521Z,1007.5
2022-10-20T01:21:44.973Z,1007.49
2022-10-20T01:22:25.437Z,1007.44
2022-10-20T01:23:05.888Z,1007.43
2022-10-20T01:24:29.873Z,1007.38
2022-10-20T01:25:07.334Z,1007.47
2022-10-20T01:25:47.825Z,1007.47
2022-10-20T01:26:28.237Z,1007.41
2022-10-20T01:27:08.731Z,1007.45
2022-10-20T01:27:49.222Z,1007.38
2022-10-20T01:28:29.718Z,1007.35
2022-10-20T01:29:10.240Z,1007.3
2022-10-20T01:29:50.651Z,1007.27
2022-10-20T01:30:31.154Z,1007.24
2022-10-20T01:31:11.579Z,1007.31
2022-10-20T01:31:52.058Z,1007.18
2022-10-20T01:32:32.577Z,1007.27
2022-10-20T01:33:13.099Z,1007.2
2022-10-20T01:33:53.578Z,1007.18
2022-10-20T01:34:34.051Z,1007.19
2022-10-20T01:35:14.636Z,1007.14
2022-10-20T01:35:55.119Z,1007.13
2022-10-20T01:36:35.602Z,1007.11
2022-10-20T01:37:23.407Z,1007.15
2022-10-20T01:37:56.801Z,1007.11
2022-10-20T01:38:37.009Z,1007.09
2022-10-20T01:39:57.957Z,1007.1
2022-10-20T01:40:38.472Z,1007.07
2022-10-20T01:41:18.963Z,1007.06
2022-10-20T01:41:59.438Z,1007.07
2022-10-20T01:42:39.914Z,1007.1
2022-10-20T01:43:20.454Z,1007.02
2022-10-20T01:44:00.893Z,1007.05
2022-10-20T01:44:41.352Z,1007.04
2022-10-20T01:45:21.851Z,1007
2022-10-20T01:46:02.356Z,1007.06
2022-10-20T01:46:42.924Z,1007.09
2022-10-20T01:47:23.383Z,1007.09
2022-10-20T01:48:03.794Z,1007.09
2022-10-20T01:48:44.295Z,1007.04
2022-10-20T01:50:57.244Z,1007.1
2022-10-20T01:51:37.644Z,1007.11
2022-10-20T01:52:18.023Z,1007.02
2022-10-20T01:52:58.433Z,1007.08
2022-10-20T01:53:38.918Z,1007.09
2022-10-20T01:54:19.353Z,1007.02
2022-10-20T01:54:59.834Z,1006.99
2022-10-20T01:55:40.293Z,1007.11
2022-10-20T01:56:20.792Z,1006.99
2022-10-20T01:57:01.276Z,1006.94
2022-10-20T01:57:41.763Z,1006.96
2022-10-20T01:58:22.222Z,1006.96
2022-10-20T01:59:02.710Z,1006.93
2022-10-20T01:59:43.213Z,1006.98
2022-10-20T02:00:23.689Z,1006.95
2022-10-20T02:01:04.199Z,1006.95
2022-10-20T02:01:44.687Z,1006.97
2022-10-20T02:02:25.113Z,1007.02
2022-10-20T02:03:05.601Z,1007.01
2022-10-20T02:03:46.122Z,1006.95
2022-10-20T02:04:26.622Z,1006.95
2022-10-20T02:05:47.560Z,1006.94
2022-10-20T02:06:28.084Z,1006.88
2022-10-20T02:07:08.604Z,1006.87
2022-10-20T02:07:49.090Z,1007.01
2022-10-20T02:08:29.621Z,1006.86
2022-10-20T02:09:10.055Z,1006.82
2022-10-20T02:09:50.555Z,1006.8
2022-10-20T02:10:31.034Z,1006.77
2022-10-20T02:11:11.477Z,1006.81
2022-10-20T02:11:51.997Z,1006.83
2022-10-20T02:12:32.644Z,1006.77
2022-10-20T02:13:13.079Z,1006.74
2022-10-20T02:13:53.579Z,1006.72
2022-10-20T02:14:34.056Z,1006.66
2022-10-20T02:15:14.556Z,1006.66
2022-10-20T02:15:55.036Z,1006.69
2022-10-20T02:16:35.502Z,1006.8
2022-10-20T02:17:16.007Z,1006.68
2022-10-20T02:17:56.600Z,1006.69
2022-10-20T02:18:37.000Z,1006.68
2022-10-20T02:19:17.462Z,1006.69
2022-10-20T02:19:58.030Z,1006.85
2022-10-20T02:20:38.430Z,1006.78
2022-10-20T02:21:18.904Z,1006.75
2022-10-20T02:21:59.392Z,1006.68
2022-10-20T02:22:39.871Z,1006.85
2022-10-20T02:23:20.356Z,1006.69
2022-10-20T02:24:00.827Z,1006.64
2022-10-20T02:24:41.292Z,1006.63
2022-10-20T02:26:02.347Z,1006.56
2022-10-20T02:26:42.864Z,1006.51
2022-10-20T02:27:23.388Z,1006.63
2022-10-20T02:28:03.813Z,1006.75
2022-10-20T02:28:44.301Z,1006.58
2022-10-20T02:33:15.598Z,1006.51
2022-10-20T02:33:56.189Z,1006.49
2022-10-20T02:34:39.598Z,1006.57
2022-10-20T02:35:17.256Z,1006.58
2022-10-20T02:35:57.800Z,1006.49
2022-10-20T02:36:38.254Z,1006.49
2022-10-20T02:37:18.761Z,1006.46
2022-10-20T02:38:39.731Z,1006.51
2022-10-20T02:39:20.246Z,1006.53
2022-10-20T02:40:00.685Z,1006.45
2022-10-20T02:40:41.143Z,1006.47
2022-10-20T02:41:21.639Z,1006.46
2022-10-20T02:42:02.130Z,1006.45
2022-10-20T02:42:42.658Z,1006.51
2022-10-20T02:43:23.218Z,1006.49
2022-10-20T02:44:03.638Z,1006.41
2022-10-20T02:44:44.119Z,1006.43
2022-10-20T02:46:05.092Z,1006.34
2022-10-20T02:46:45.550Z,1006.36
2022-10-20T02:47:26.035Z,1006.34
2022-10-20T02:48:07.852Z,1006.28
2022-10-20T02:48:46.913Z,1006.36
2022-10-20T02:49:27.394Z,1006.4
2022-10-20T02:50:07.902Z,1006.39
2022-10-20T02:50:48.420Z,1006.43
2022-10-20T02:51:28.865Z,1006.53
2022-10-20T02:52:09.338Z,1006.48
2022-10-20T02:52:49.795Z,1006.45
2022-10-20T02:53:30.243Z,1006.5
2022-10-20T02:54:10.749Z,1006.52
2022-10-20T02:54:51.185Z,1006.46
2022-10-20T02:55:31.720Z,1005.96
2022-10-20T02:56:12.219Z,1006.59
2022-10-20T02:56:52.708Z,1006.41
2022-10-20T02:57:33.406Z,1006.48
2022-10-20T02:58:13.690Z,1006.43
2022-10-20T02:58:54.149Z,1006.4
2022-10-20T02:59:34.622Z,1006.37
2022-10-20T03:00:15.167Z,1006.43
2022-10-20T03:00:55.645Z,1006.41
2022-10-20T03:01:36.130Z,1006.47
2022-10-20T03:02:16.585Z,1006.44
2022-10-20T03:02:57.072Z,1006.35
2022-10-20T03:03:37.547Z,1006.41
2022-10-20T03:04:18.135Z,1006.49
2022-10-20T03:04:58.522Z,1006.42
2022-10-20T03:05:39.113Z,1006.4
2022-10-20T03:06:19.540Z,1006.42
2022-10-20T03:07:00.032Z,1006.45
2022-10-20T03:07:40.474Z,1006.4
2022-10-20T03:08:20.964Z,1006.37
2022-10-20T03:09:01.541Z,1006.34
2022-10-20T03:09:41.933Z,1006.33
2022-10-20T03:10:22.435Z,1006.21
2022-10-20T03:11:02.906Z,1006.31
2022-10-20T03:11:43.373Z,1006.31
2022-10-20T03:12:24.686Z,1006.21
2022-10-20T03:13:04.367Z,1006.23
2022-10-20T03:13:45.512Z,1006.26
2022-10-20T03:14:25.997Z,1006.22
2022-10-20T03:15:06.478Z,1006.19
2022-10-20T03:16:27.372Z,1006.15
2022-10-20T03:17:07.859Z,1006.15
2022-10-20T03:17:48.364Z,1006.18
2022-10-20T03:18:28.851Z,1006.15
2022-10-20T03:19:11.624Z,1006.14
2022-10-20T03:19:49.767Z,1006.11
2022-10-20T03:20:30.230Z,1006.29
2022-10-20T03:21:10.713Z,1006.2
2022-10-20T03:21:51.186Z,1006.22
2022-10-20T03:22:31.750Z,1006.15
2022-10-20T03:23:13.254Z,1006.28
2022-10-20T03:23:52.661Z,1006.18
2022-10-20T03:24:33.176Z,1006.14
2022-10-20T03:25:13.658Z,1006.13
2022-10-20T03:25:54.142Z,1006.06
2022-10-20T03:26:34.617Z,1006.07
2022-10-20T03:27:15.140Z,1006.1
2022-10-20T03:27:55.533Z,1005.99
2022-10-20T03:28:35.978Z,1006.02
2022-10-20T03:29:16.476Z,1006
2022-10-20T03:29:57.020Z,1005.96
2022-10-20T03:30:37.467Z,1005.88
2022-10-20T03:31:18.024Z,1005.96
2022-10-20T03:31:58.466Z,1005.98
2022-10-20T03:32:39.143Z,1005.97
2022-10-20T03:34:00.373Z,1005.89
2022-10-20T03:34:40.866Z,1005.89
2022-10-20T03:35:21.368Z,1005.84
2022-10-20T03:36:01.887Z,1005.9
2022-10-20T03:36:42.383Z,1005.75
2022-10-20T03:37:22.953Z,1005.78
2022-10-20T03:38:03.377Z,1005.9
2022-10-20T03:38:43.884Z,1005.82
2022-10-20T03:39:24.373Z,1005.83
2022-10-20T03:40:04.867Z,1005.77
2022-10-20T03:40:46.077Z,1005.79
2022-10-20T03:41:26.545Z,1005.81
2022-10-20T03:42:07.543Z,1005.84
2022-10-20T03:42:48.076Z,1005.86
2022-10-20T03:44:09.022Z,1005.83
2022-10-20T03:44:49.429Z,1005.78
2022-10-20T03:45:29.907Z,1005.78
2022-10-20T03:46:10.376Z,1005.91
2022-10-20T03:46:50.910Z,1005.86
2022-10-20T03:47:31.326Z,1005.78
2022-10-20T03:48:11.836Z,1005.82
2022-10-20T03:48:52.281Z,1005.8
2022-10-20T03:49:32.813Z,1005.84
2022-10-20T03:50:13.293Z,1005.8
2022-10-20T03:50:53.769Z,1005.89
2022-10-20T03:51:34.237Z,1005.87
2022-10-20T03:52:14.775Z,1005.85
2022-10-20T03:52:55.301Z,1005.88
2022-10-20T03:53:35.768Z,1005.93
2022-10-20T03:54:16.220Z,1005.91
2022-10-20T03:54:56.711Z,1005.97
2022-10-20T03:55:37.193Z,1005.99
2022-10-20T03:56:17.671Z,1005.98
2022-10-20T03:56:58.197Z,1006.03
2022-10-20T03:57:39.011Z,1005.98
2022-10-20T03:58:19.223Z,1006.08
2022-10-20T03:58:59.710Z,1005.96
2022-10-20T03:59:40.164Z,1005.93
2022-10-20T04:00:20.708Z,1005.88
2022-10-20T04:01:01.124Z,1005.82
2022-10-20T04:01:41.694Z,1005.87
2022-10-20T04:02:22.118Z,1005.92
2022-10-20T04:03:02.597Z,1005.82
2022-10-20T04:07:34.590Z,1005.68
2022-10-20T04:08:55.788Z,1005.78
2022-10-20T04:09:36.170Z,1005.68
2022-10-20T04:10:16.617Z,1005.71
2022-10-20T04:11:37.549Z,1005.62
2022-10-20T04:12:18.010Z,1005.63
2022-10-20T04:12:58.591Z,1005.54
2022-10-20T04:13:38.978Z,1005.56
2022-10-20T04:14:19.439Z,1005.56
2022-10-20T04:15:00.668Z,1005.51
2022-10-20T04:15:41.235Z,1005.57
2022-10-20T04:16:25.426Z,1005.53
2022-10-20T04:17:04.798Z,1005.48
2022-10-20T04:17:45.169Z,1005.4
2022-10-20T04:18:25.772Z,1005.54
2022-10-20T04:19:06.761Z,1005.5
2022-10-20T04:19:47.231Z,1005.45
2022-10-20T04:20:27.790Z,1005.4
2022-10-20T04:21:08.403Z,1005.44
2022-10-20T04:21:49.054Z,1005.43
2022-10-20T04:22:31.430Z,1005.48
2022-10-20T04:23:11.964Z,1005.49
2022-10-20T04:23:52.811Z,1005.52
2022-10-20T04:24:34.058Z,1005.47
2022-10-20T04:25:14.876Z,1005.47
2022-10-20T04:26:35.836Z,1005.49
2022-10-20T04:27:16.337Z,1005.45
2022-10-20T04:27:56.753Z,1005.45
2022-10-20T04:28:37.259Z,1005.46
2022-10-20T04:29:17.766Z,1005.42
2022-10-20T04:29:58.262Z,1005.43
2022-10-20T04:30:38.729Z,1005.44
2022-10-20T04:31:19.258Z,1005.46
2022-10-20T04:32:05.458Z,1005.39
2022-10-20T04:32:45.431Z,1005.36
2022-10-20T04:33:30.215Z,1005.37
2022-10-20T04:34:17.795Z,1005.34
2022-10-20T04:34:58.959Z,1005.42
2022-10-20T04:35:38.829Z,1005.35
2022-10-20T04:36:19.266Z,1005.52
2022-10-20T04:36:59.902Z,1005.36
2022-10-20T04:37:40.447Z,1005.42
2022-10-20T04:38:21.178Z,1005.42
2022-10-20T04:39:01.808Z,1005.32
2022-10-20T04:39:42.314Z,1005.43
2022-10-20T04:40:22.752Z,1005.44
2022-10-20T04:41:04.158Z,1005.47
2022-10-20T04:41:45.755Z,1005.4
2022-10-20T04:42:33.170Z,1005.38
2022-10-20T04:43:10.903Z,1005.27
2022-10-20T04:43:55.795Z,1005.35
2022-10-20T04:44:41.535Z,1005.37
2022-10-20T04:45:50.615Z,1005.39
2022-10-20T04:46:31.467Z,1005.48
2022-10-20T04:47:14.950Z,1005.4
2022-10-20T04:47:55.693Z,1005.37
2022-10-20T04:48:37.178Z,1005.21
2022-10-20T04:50:46.377Z,1005.09
2022-10-20T04:51:26.941Z,1005.01
2022-10-20T04:52:07.523Z,1005.07
2022-10-20T04:52:47.953Z,1005.14
2022-10-20T04:53:29.224Z,1005.03
2022-10-20T04:54:09.646Z,1005.03
2022-10-20T04:54:50.526Z,1005.02
2022-10-20T04:55:31.027Z,1004.99
2022-10-20T04:56:11.992Z,1005.17
2022-10-20T04:56:53.960Z,1004.96
2022-10-20T04:57:34.577Z,1004.96
2022-10-20T04:58:14.822Z,1004.96
2022-10-20T04:58:55.444Z,1005.09
2022-10-20T05:00:16.694Z,1005.04
2022-10-20T05:00:57.695Z,1005.15
2022-10-20T05:01:38.580Z,1005.11
2022-10-20T05:02:18.972Z,1005.14
2022-10-20T05:02:59.793Z,1005.16
2022-10-20T05:03:40.335Z,1005.08
2022-10-20T05:04:20.834Z,1005.06
2022-10-20T05:05:01.257Z,1004.98
2022-10-20T05:05:42.141Z,1005.05
2022-10-20T05:06:22.642Z,1004.89
2022-10-20T05:07:03.290Z,1004.99
2022-10-20T05:07:43.851Z,1004.97
2022-10-20T05:08:24.435Z,1004.87
2022-10-20T05:09:04.995Z,1004.84
2022-10-20T05:10:26.046Z,1004.84
2022-10-20T05:11:06.501Z,1004.96
2022-10-20T05:13:19.378Z,1004.79
2022-10-20T05:14:00.190Z,1004.86
2022-10-20T05:14:40.643Z,1004.81
2022-10-20T05:15:21.108Z,1004.78
2022-10-20T05:16:01.649Z,1004.76
2022-10-20T05:16:42.236Z,1004.75
2022-10-20T05:17:22.817Z,1004.82
2022-10-20T05:18:03.299Z,1004.78
2022-10-20T05:18:43.770Z,1004.72
2022-10-20T05:19:24.277Z,1004.75
2022-10-20T05:20:04.746Z,1004.8
2022-10-20T05:21:04.194Z,1004.71
2022-10-20T05:21:25.872Z,1004.71
2022-10-20T05:22:06.465Z,1004.76
2022-10-20T05:22:46.991Z,1004.66
2022-10-20T05:23:27.531Z,1004.63
2022-10-20T05:26:28.325Z,1004.68
2022-10-20T05:27:08.079Z,1004.62
2022-10-20T05:27:48.615Z,1004.63
2022-10-20T05:28:29.097Z,1004.6
2022-10-20T05:29:09.647Z,1004.59
2022-10-20T05:29:50.092Z,1004.63
2022-10-20T05:30:30.691Z,1004.74
2022-10-20T05:31:11.141Z,1004.68
2022-10-20T05:31:51.915Z,1004.63
2022-10-20T05:32:32.438Z,1004.63
2022-10-20T05:33:13.158Z,1004.62
2022-10-20T05:33:53.881Z,1004.57
2022-10-20T05:34:34.197Z,1004.57
2022-10-20T05:35:14.700Z,1004.59
2022-10-20T05:35:55.337Z,1004.6
2022-10-20T05:36:35.822Z,1004.61
2022-10-20T05:37:16.305Z,1004.61
2022-10-20T05:37:57.017Z,1004.62
2022-10-20T05:38:37.524Z,1004.51
2022-10-20T05:39:18.062Z,1004.53
2022-10-20T05:39:58.551Z,1004.54
2022-10-20T05:40:39.055Z,1004.5
2022-10-20T05:41:19.499Z,1004.45
2022-10-20T05:42:00.093Z,1004.51
2022-10-20T05:42:40.556Z,1004.45
2022-10-20T05:43:22.717Z,1004.4
2022-10-20T05:44:03.187Z,1004.48
2022-10-20T05:44:44.031Z,1004.46
2022-10-20T05:45:24.600Z,1004.4
2022-10-20T05:46:05.955Z,1004.38
2022-10-20T05:46:46.528Z,1004.32
2022-10-20T05:47:28.119Z,1004.35
2022-10-20T05:48:08.614Z,1004.34
2022-10-20T05:48:49.141Z,1004.38
2022-10-20T05:49:29.703Z,1004.41
2022-10-20T05:50:10.185Z,1004.38
2022-10-20T05:50:50.727Z,1004.39
2022-10-20T06:31:33.377Z,1004.65
2022-10-20T06:32:16.248Z,1004.69
2022-10-20T06:32:57.235Z,1004.72
2022-10-20T06:33:38.772Z,1004.62
2022-10-20T06:34:19.134Z,1004.57
2022-10-20T06:34:59.959Z,1004.54
2022-10-20T06:35:40.558Z,1004.52
2022-10-20T06:36:21.308Z,1004.54
2022-10-20T06:37:02.985Z,1004.45
2022-10-20T06:37:43.485Z,1004.33
2022-10-20T06:38:24.130Z,1004.42
2022-10-20T06:39:04.527Z,1004.57
2022-10-20T06:39:44.990Z,1004.4
2022-10-20T06:40:25.538Z,1004.37
2022-10-20T06:41:06.197Z,1004.3
2022-10-20T06:41:46.693Z,1004.34
2022-10-20T06:42:27.183Z,1004.35
2022-10-20T06:43:07.898Z,1004.36
2022-10-20T06:43:49.252Z,1004.44
2022-10-20T06:44:30.258Z,1004.5
2022-10-20T06:45:11.452Z,1004.48
2022-10-20T06:45:51.382Z,1004.45
2022-10-20T06:48:53.965Z,1004.51
2022-10-20T06:49:33.301Z,1004.55
2022-10-20T06:50:13.914Z,1004.53
2022-10-20T06:50:54.569Z,1004.51
2022-10-20T06:51:35.103Z,1004.62
2022-10-20T06:52:15.594Z,1004.54
2022-10-20T06:52:56.163Z,1004.58
2022-10-20T06:53:37.377Z,1004.64
2022-10-20T06:54:18.040Z,1004.68
2022-10-20T06:54:58.568Z,1004.69
2022-10-20T06:55:39.183Z,1004.62
2022-10-20T06:56:22.897Z,1004.64
2022-10-20T06:57:03.872Z,1004.56
2022-10-20T07:02:29.833Z,1004.69
2022-10-20T07:03:10.331Z,1004.63
2022-10-20T07:03:51.125Z,1004.54
2022-10-20T07:04:32.703Z,1004.57
2022-10-20T07:05:13.286Z,1004.66
2022-10-20T07:05:53.924Z,1004.65
2022-10-20T07:06:34.936Z,1004.76
2022-10-20T07:07:15.872Z,1004.71
2022-10-20T07:07:56.500Z,1004.66
2022-10-20T07:08:37.146Z,1004.59
2022-10-20T07:09:17.660Z,1004.63
2022-10-20T07:09:58.126Z,1004.62
2022-10-20T07:10:38.653Z,1004.61
2022-10-20T07:11:19.212Z,1004.56
2022-10-20T07:11:59.718Z,1004.54
2022-10-20T07:12:40.254Z,1004.53
2022-10-20T07:13:20.789Z,1004.57
2022-10-20T07:14:01.468Z,1004.55
2022-10-20T07:14:42.041Z,1004.49
2022-10-20T07:15:22.547Z,1004.53
2022-10-20T07:16:03.300Z,1004.53
2022-10-20T07:16:43.877Z,1004.57
2022-10-20T07:17:24.470Z,1004.55
2022-10-20T07:18:04.895Z,1004.59
2022-10-20T07:18:45.392Z,1004.53
2022-10-20T07:19:26.242Z,1004.51
2022-10-20T07:20:06.802Z,1004.53
2022-10-20T07:22:49.927Z,1004.45
2022-10-20T07:23:30.411Z,1004.51
2022-10-20T07:24:11.132Z,1004.51
2022-10-20T07:24:53.992Z,1004.63
2022-10-20T07:25:32.805Z,1004.5
2022-10-20T07:26:13.337Z,1004.46
2022-10-20T07:26:53.962Z,1004.47
2022-10-20T07:27:35.544Z,1004.45
2022-10-20T07:28:15.809Z,1004.43
2022-10-20T07:28:56.513Z,1004.5
2022-10-20T07:29:37.243Z,1004.53
2022-10-20T07:30:17.796Z,1004.51
2022-10-20T07:30:59.195Z,1004.54
2022-10-20T07:31:40.587Z,1004.56
2022-10-20T07:32:21.197Z,1004.56
2022-10-20T07:33:01.734Z,1004.56
2022-10-20T07:33:42.787Z,1004.53
2022-10-20T07:34:26.594Z,1004.56
2022-10-20T07:35:04.610Z,1004.58
2022-10-20T07:35:45.299Z,1004.71
2022-10-20T07:36:25.652Z,1004.71
2022-10-20T07:37:07.502Z,1004.73
2022-10-20T07:37:47.940Z,1004.72
2022-10-20T07:38:28.386Z,1004.72
2022-10-20T07:39:09.285Z,1004.65
2022-10-20T07:39:50.207Z,1004.65
2022-10-20T07:40:30.822Z,1004.75
2022-10-20T07:43:16.262Z,1004.71
2022-10-20T07:43:57.093Z,1004.75
2022-10-20T07:44:37.645Z,1004.81
2022-10-20T07:45:18.500Z,1004.79
2022-10-20T07:45:58.982Z,1004.76
2022-10-20T07:46:39.800Z,1004.79
2022-10-20T07:52:36.589Z,1004.75
2022-10-20T07:53:32.643Z,1004.81
2022-10-20T07:54:13.096Z,1004.75
2022-10-20T07:54:58.717Z,1004.69
2022-10-20T07:55:38.846Z,1004.63
2022-10-20T07:56:15.549Z,1004.65
2022-10-20T07:56:56.042Z,1004.72
2022-10-20T07:57:37.755Z,1004.63
2022-10-20T07:58:19.539Z,1004.64
2022-10-20T07:59:00.202Z,1004.63
2022-10-20T07:59:40.746Z,1004.63
2022-10-20T08:00:21.556Z,1004.65
2022-10-20T08:01:02.092Z,1004.61
2022-10-20T08:01:42.855Z,1004.66
2022-10-20T08:02:23.943Z,1004.58
2022-10-20T08:03:04.570Z,1004.68
2022-10-20T08:03:45.102Z,1004.61
2022-10-20T08:04:25.613Z,1004.62
2022-10-20T08:05:06.358Z,1004.6
2022-10-20T08:05:46.810Z,1004.56
2022-10-20T08:06:27.995Z,1004.53
2022-10-20T08:07:08.353Z,1004.55
2022-10-20T08:07:48.727Z,1004.59
2022-10-20T08:08:29.423Z,1004.57
2022-10-20T08:09:11.125Z,1004.6
2022-10-20T08:09:51.877Z,1004.64
2022-10-20T08:10:32.359Z,1004.65
2022-10-20T08:11:13.303Z,1004.73
2022-10-20T08:11:54.505Z,1004.74
2022-10-20T08:12:34.300Z,1004.7
2022-10-20T08:13:15.131Z,1004.81
2022-10-20T08:13:55.815Z,1004.68
2022-10-20T08:14:36.716Z,1004.57
2022-10-20T08:15:21.646Z,1004.65
2022-10-20T08:16:12.280Z,1004.59
2022-10-20T08:16:55.786Z,1004.69
2022-10-20T08:17:35.837Z,1004.69
2022-10-20T08:18:18.784Z,1004.7
2022-10-20T08:19:03.657Z,1004.72
2022-10-20T08:24:23.331Z,1004.62
2022-10-20T08:27:41.334Z,1004.65
2022-10-20T08:28:23.489Z,1004.71
2022-10-20T08:29:03.005Z,1004.73
2022-10-20T08:29:47.673Z,1004.67
2022-10-20T08:30:24.601Z,1004.64
2022-10-20T08:31:04.698Z,1004.67
2022-10-20T08:31:45.286Z,1004.68
2022-10-20T08:32:25.748Z,1004.68
2022-10-20T08:33:06.213Z,1004.67
2022-10-20T08:33:51.523Z,1004.66
2022-10-20T08:34:27.793Z,1004.7
2022-10-20T08:35:08.014Z,1004.73
2022-10-20T08:35:48.549Z,1004.71
2022-10-20T08:36:29.144Z,1004.75
2022-10-20T08:37:09.775Z,1004.63
2022-10-20T08:37:51.180Z,1004.65
2022-10-20T08:38:31.644Z,1004.6
2022-10-20T08:39:12.172Z,1004.57
2022-10-20T08:39:52.645Z,1004.59
2022-10-20T08:40:33.263Z,1004.63
2022-10-20T08:41:13.814Z,1004.62
2022-10-20T08:42:07.284Z,1004.58
2022-10-20T08:42:34.951Z,1004.54
2022-10-20T08:43:15.562Z,1004.51
2022-10-20T08:43:56.023Z,1004.42
2022-10-20T08:44:36.556Z,1004.47
2022-10-20T08:45:17.131Z,1004.4
2022-10-20T08:45:58.736Z,1004.57
2022-10-20T08:46:39.510Z,1004.48
2022-10-20T08:47:21.032Z,1004.4
2022-10-20T08:48:01.570Z,1004.52
2022-10-20T08:48:42.049Z,1004.43
2022-10-20T08:49:22.703Z,1004.47
2022-10-20T08:50:03.303Z,1004.49
2022-10-20T08:50:43.802Z,1004.45
2022-10-20T08:51:24.841Z,1004.37
2022-10-20T08:52:05.406Z,1004.39
2022-10-20T08:52:47.256Z,1004.45
2022-10-20T08:53:28.665Z,1004.38
2022-10-20T08:54:10.532Z,1004.35
2022-10-20T08:54:50.514Z,1004.43
2022-10-20T08:55:32.130Z,1004.44
2022-10-20T08:56:12.625Z,1004.5
2022-10-20T08:56:53.291Z,1004.44
2022-10-20T08:57:38.181Z,1004.44
2022-10-20T08:58:18.443Z,1004.43
2022-10-20T08:58:59.086Z,1004.4
2022-10-20T08:59:40.249Z,1004.47
2022-10-20T09:00:20.871Z,1004.56
2022-10-20T09:01:01.331Z,1004.52
2022-10-20T09:02:22.342Z,1004.49
2022-10-20T09:03:02.846Z,1004.53
2022-10-20T09:03:43.462Z,1004.52
2022-10-20T09:04:26.852Z,1004.44
2022-10-20T09:05:09.171Z,1004.46
2022-10-20T09:08:08.634Z,1004.36
2022-10-20T09:08:49.218Z,1004.4
2022-10-20T09:09:29.707Z,1004.45
2022-10-20T09:10:11.075Z,1004.46
2022-10-20T09:10:51.630Z,1004.43
2022-10-20T09:11:32.148Z,1004.41
2022-10-20T09:12:12.656Z,1004.28
2022-10-20T09:12:53.262Z,1004.23
2022-10-20T09:13:33.734Z,1004.26
2022-10-20T09:14:14.272Z,1004.31
2022-10-20T09:17:13.193Z,1004.35
2022-10-20T09:17:54.556Z,1004.34
2022-10-20T09:18:35.598Z,1004.37
2022-10-20T09:19:16.689Z,1004.29
2022-10-20T09:19:57.766Z,1004.35
2022-10-20T09:20:38.870Z,1004.32
2022-10-20T09:21:19.933Z,1004.33
2022-10-20T09:22:02.551Z,1004.2
2022-10-20T09:22:43.573Z,1004.26
2022-10-20T09:23:41.789Z,1004.31
2022-10-20T09:26:30.311Z,1004.27
2022-10-20T09:27:04.433Z,1004.26
2022-10-20T09:27:44.936Z,1004.31
2022-10-20T09:28:25.408Z,1004.35
2022-10-20T09:29:12.810Z,1004.38
2022-10-20T09:29:47.109Z,1004.38
2022-10-20T09:33:20.273Z,1004.29
2022-10-20T09:37:06.712Z,1004.44
2022-10-20T09:37:46.971Z,1004.41
2022-10-20T09:38:29.064Z,1004.49
2022-10-20T09:39:10.104Z,1004.53
2022-10-20T09:39:55.082Z,1004.58
2022-10-20T09:40:32.811Z,1004.38
2022-10-20T09:43:58.140Z,1004.26
2022-10-20T09:44:36.745Z,1004.42
2022-10-20T09:45:28.069Z,1004.36
2022-10-20T09:47:16.577Z,1004.36
2022-10-20T09:47:59.870Z,1004.37
2022-10-20T09:48:46.660Z,1004.42
2022-10-20T09:51:17.889Z,1004.51
2022-10-20T09:51:58.764Z,1004.6
2022-10-20T09:52:40.134Z,1004.63
2022-10-20T09:53:20.504Z,1004.59
2022-10-20T09:54:00.926Z,1004.55
2022-10-20T09:54:41.445Z,1004.58
2022-10-20T09:55:21.891Z,1004.49
2022-10-20T09:56:02.509Z,1004.52
2022-10-20T09:56:42.901Z,1004.49
2022-10-20T09:57:23.435Z,1004.47
2022-10-20T09:58:04.056Z,1004.48
2022-10-20T09:58:44.615Z,1004.55
2022-10-20T09:59:25.998Z,1004.64
2022-10-20T10:00:19.097Z,1004.64
2022-10-20T10:00:47.331Z,1004.62
2022-10-20T10:01:28.902Z,1004.66
2022-10-20T10:05:32.181Z,1004.78
2022-10-20T10:06:12.862Z,1004.75
2022-10-20T10:06:53.435Z,1004.81
2022-10-20T10:07:33.911Z,1004.8
2022-10-20T10:08:15.415Z,1004.81
2022-10-20T10:08:55.322Z,1004.8
2022-10-20T10:09:36.435Z,1004.79
2022-10-20T10:10:17.245Z,1004.86
2022-10-20T10:10:57.921Z,1004.84
2022-10-20T10:11:38.194Z,1004.77
2022-10-20T10:12:18.770Z,1004.78
2022-10-20T10:12:59.607Z,1004.79
2022-10-20T10:13:40.028Z,1004.75
2022-10-20T10:14:20.564Z,1004.74
2022-10-20T10:15:01.331Z,1004.77
2022-10-20T10:15:42.053Z,1004.71
2022-10-20T10:17:05.062Z,1004.71
2022-10-20T10:17:45.545Z,1004.67
2022-10-20T10:18:26.006Z,1004.62
2022-10-20T10:19:47.142Z,1004.57
2022-10-20T10:20:27.746Z,1004.61
2022-10-20T10:21:08.182Z,1004.51
2022-10-20T10:21:49.054Z,1004.54
2022-10-20T10:22:29.709Z,1004.55
2022-10-20T10:23:10.281Z,1004.53
2022-10-20T10:23:50.744Z,1004.66
2022-10-20T10:24:31.336Z,1004.51
2022-10-20T10:25:11.811Z,1004.53
2022-10-20T10:25:52.280Z,1004.47
2022-10-20T10:26:32.790Z,1004.44
2022-10-20T10:27:13.293Z,1004.41
2022-10-20T10:27:53.820Z,1004.45
2022-10-20T10:28:34.290Z,1004.47
2022-10-20T10:29:14.829Z,1004.54
2022-10-20T10:29:55.308Z,1004.49
2022-10-20T10:30:35.855Z,1004.45
2022-10-20T10:31:16.305Z,1004.4
2022-10-20T10:31:56.842Z,1004.3
2022-10-20T10:32:37.707Z,1004.19
2022-10-20T10:33:17.911Z,1004.12
2022-10-20T10:33:58.386Z,1004.06
2022-10-20T10:34:38.884Z,1004.02
2022-10-20T10:35:19.433Z,1004.03
2022-10-20T10:36:00.061Z,1004.05
2022-10-20T10:36:40.479Z,1004.03
2022-10-20T10:38:01.623Z,1004.08
2022-10-20T10:38:42.095Z,1004.11
2022-10-20T10:39:22.594Z,1004.21
2022-10-20T10:40:03.193Z,1004.27